Time;durP1;ratioP1;P1;durP2;ratioP2;P2;SDS_P1;SDS_P2;PMS_P1;PMS_P2;Temp;Humidity;BMP_temperature;BMP_pressure;BME280_temperature;BME280_humidity;BME280_pressure;Samples;Min_cycle;Max_cycle;Signal;HPM_P1;HPM_P2
2024/04/10 00:01:13;;;;;;;65.05;29.65;;;;;;;11.57;100.00;99116.44;5344717;26;20013;-69
2024/04/10 00:03:39;;;;;;;77.28;33.13;;;;;;;11.56;100.00;99114.06;5343084;26;20001;-70
2024/04/10 00:06:08;;;;;;;92.85;34.75;;;;;;;11.52;100.00;99124.34;5342950;26;20346;-69
2024/04/10 00:08:35;;;;;;;76.95;33.53;;;;;;;11.56;100.00;99128.13;5344636;26;20466;-67
2024/04/10 00:11:02;;;;;;;81.18;34.03;;;;;;;11.53;100.00;99125.97;5343642;26;20539;-69
2024/04/10 00:13:30;;;;;;;102.18;37.78;;;;;;;11.49;100.00;99135.47;5342843;26;19997;-70
2024/04/10 00:16:04;;;;;;;84.63;34.78;;;;;;;11.46;100.00;99128.00;5343185;26;20007;-70
2024/04/10 00:18:31;;;;;;;84.07;33.63;;;;;;;11.51;100.00;99138.69;5314318;26;20049;-70
2024/04/10 00:20:57;;;;;;;97.88;32.55;;;;;;;11.49;100.00;99137.31;5343284;26;20025;-70
2024/04/10 00:23:23;;;;;;;79.28;32.60;;;;;;;11.48;100.00;99141.84;5342947;26;20013;-70
2024/04/10 00:25:53;;;;;;;97.47;30.27;;;;;;;11.42;100.00;99140.19;5342915;26;20005;-70
2024/04/10 00:28:19;;;;;;;154.52;32.30;;;;;;;11.34;100.00;99137.97;5344688;26;20070;-68
2024/04/10 00:30:45;;;;;;;162.25;33.90;;;;;;;11.32;100.00;99140.03;5342626;26;20020;-68
2024/04/10 00:33:11;;;;;;;184.52;32.97;;;;;;;11.33;100.00;99146.97;5342820;26;20005;-68
2024/04/10 00:35:36;;;;;;;187.82;32.38;;;;;;;11.32;100.00;99145.34;5342650;26;20009;-68
2024/04/10 00:38:02;;;;;;;129.13;30.05;;;;;;;11.23;100.00;99149.50;5342824;26;20051;-67
2024/04/10 00:40:28;;;;;;;91.55;26.15;;;;;;;11.23;100.00;99158.25;5344081;26;20016;-69
2024/04/10 00:42:57;;;;;;;189.20;27.08;;;;;;;11.22;100.00;99156.66;5344852;26;20016;-68
2024/04/10 00:45:23;;;;;;;182.43;28.30;;;;;;;11.14;100.00;99154.44;5286623;26;20005;-69
2024/04/10 00:47:49;;;;;;;284.98;36.42;;;;;;;11.21;100.00;99159.56;5343147;26;20005;-68
2024/04/10 00:50:16;;;;;;;198.07;28.75;;;;;;;11.19;100.00;99170.41;5344562;26;20004;-67
2024/04/10 00:52:41;;;;;;;119.45;25.50;;;;;;;11.14;100.00;99173.00;5344891;26;20051;-68
2024/04/10 00:55:07;;;;;;;136.13;25.90;;;;;;;11.05;100.00;99182.44;5344571;26;20028;-69
2024/04/10 00:57:33;;;;;;;148.75;27.30;;;;;;;11.01;100.00;99186.63;5343217;26;20362;-69
2024/04/10 00:59:59;;;;;;;162.50;24.90;;;;;;;10.91;100.00;99192.56;5342838;26;20034;-72
2024/04/10 01:02:25;;;;;;;64.05;21.13;;;;;;;10.83;100.00;99199.13;5344464;26;20474;-69
2024/04/10 01:04:51;;;;;;;114.63;24.27;;;;;;;10.82;100.00;99205.44;5342742;26;20005;-69
2024/04/10 01:07:17;;;;;;;155.00;30.55;;;;;;;10.81;100.00;99195.09;5344610;26;20373;-70
2024/04/10 01:09:46;;;;;;;117.68;25.35;;;;;;;10.74;100.00;99186.53;5314466;26;20044;-69
2024/04/10 01:12:12;;;;;;;211.15;30.73;;;;;;;10.67;100.00;99197.28;5371924;26;20001;-71
2024/04/10 01:14:38;;;;;;;112.60;24.70;;;;;;;10.64;100.00;99201.22;5285887;26;20020;-70
2024/04/10 01:17:04;;;;;;;191.00;30.00;;;;;;;10.61;100.00;99196.41;5342828;26;20013;-69
2024/04/10 01:19:29;;;;;;;97.80;21.88;;;;;;;10.61;100.00;99201.69;5285769;26;20005;-68
2024/04/10 01:21:55;;;;;;;154.20;24.17;;;;;;;10.54;100.00;99202.91;5344158;26;20427;-70
2024/04/10 01:24:21;;;;;;;102.07;21.55;;;;;;;10.46;100.00;99204.13;5344413;26;20370;-68
2024/04/10 01:26:47;;;;;;;96.07;19.52;;;;;;;10.42;100.00;99203.00;5342553;26;20005;-70
2024/04/10 01:29:13;;;;;;;104.05;19.77;;;;;;;10.38;100.00;99210.63;5314083;26;20013;-68
2024/04/10 01:31:39;;;;;;;144.30;21.70;;;;;;;10.36;100.00;99209.25;5342233;26;20005;-67
2024/04/10 01:34:04;;;;;;;113.10;17.92;;;;;;;10.38;100.00;99215.94;5344206;26;20413;-68
2024/04/10 01:36:30;;;;;;;183.05;23.80;;;;;;;10.31;100.00;99219.75;5347171;26;20013;-67
2024/04/10 01:38:56;;;;;;;208.77;22.10;;;;;;;10.30;100.00;99213.66;5347760;26;20013;-68
2024/04/10 01:41:22;;;;;;;172.65;20.42;;;;;;;10.14;100.00;99209.91;5347224;26;20372;-69
2024/04/10 01:43:47;;;;;;;152.68;19.65;;;;;;;10.22;100.00;99227.28;5345805;26;20016;-68
2024/04/10 01:46:16;;;;;;;150.65;18.92;;;;;;;10.24;100.00;99220.69;5343202;26;20460;-69
2024/04/10 01:48:41;;;;;;;188.75;21.05;;;;;;;10.16;100.00;99222.94;5344274;26;20465;-68
2024/04/10 01:51:07;;;;;;;162.57;20.38;;;;;;;10.12;100.00;99240.34;5346718;26;20076;-69
2024/04/10 01:53:33;;;;;;;127.22;19.00;;;;;;;10.08;100.00;99240.00;5375357;26;20033;-67
2024/04/10 01:55:59;;;;;;;224.70;22.50;;;;;;;10.15;100.00;99242.53;5345425;26;20489;-67
2024/04/10 01:58:25;;;;;;;192.27;20.92;;;;;;;10.13;100.00;99252.53;5404366;26;20081;-72
2024/04/10 02:00:54;;;;;;;185.57;21.13;;;;;;;10.03;100.00;99247.88;5345767;26;20005;-71
2024/04/10 02:03:20;;;;;;;151.85;19.25;;;;;;;10.10;100.00;99253.81;5366773;26;20006;-69
2024/04/10 02:05:46;;;;;;;113.93;17.95;;;;;;;10.02;100.00;99254.19;5311849;27;20465;-69
2024/04/10 02:08:11;;;;;;;173.85;20.38;;;;;;;10.05;100.00;99259.00;5334448;26;20005;-69
2024/04/10 02:10:37;;;;;;;154.50;19.65;;;;;;;10.06;100.00;99260.63;5345049;26;20051;-72
2024/04/10 02:13:03;;;;;;;161.82;20.33;;;;;;;10.00;100.00;99265.03;5344962;26;20477;-71
2024/04/10 02:15:34;;;;;;;210.77;22.55;;;;;;;9.99;100.00;99271.34;5345546;26;20005;-71
2024/04/10 02:18:00;;;;;;;251.13;25.73;;;;;;;9.92;100.00;99272.53;5345095;26;20016;-70
2024/04/10 02:20:26;;;;;;;90.35;14.77;;;;;;;9.92;100.00;99275.19;5347180;26;20005;-69
2024/04/10 02:22:53;;;;;;;163.18;20.63;;;;;;;9.91;100.00;99273.56;5316464;26;20013;-70
2024/04/10 02:25:18;;;;;;;166.73;17.77;;;;;;;9.96;100.00;99278.97;5345148;26;19997;-68
2024/04/10 02:27:45;;;;;;;232.60;21.83;;;;;;;9.94;100.00;99279.22;5345890;26;20035;-70
2024/04/10 02:30:11;;;;;;;95.10;16.92;;;;;;;9.98;100.00;99275.03;5339988;26;20024;-72
2024/04/10 02:32:38;;;;;;;73.70;13.98;;;;;;;10.08;100.00;99284.22;5315209;26;20040;-69
2024/04/10 02:35:03;;;;;;;169.38;19.25;;;;;;;10.10;100.00;99287.44;5385078;26;20045;-69
2024/04/10 02:37:29;;;;;;;165.77;20.45;;;;;;;10.10;100.00;99287.44;5346865;26;20001;-71
2024/04/10 02:39:57;;;;;;;102.10;15.00;;;;;;;10.04;100.00;99289.19;5346929;26;20028;-70
2024/04/10 02:42:23;;;;;;;99.22;14.05;;;;;;;10.01;100.00;99287.81;5346652;26;20043;-66
2024/04/10 02:44:51;;;;;;;68.63;12.35;;;;;;;9.97;100.00;99291.16;5345059;26;20005;-71
2024/04/10 02:47:19;;;;;;;138.70;14.60;;;;;;;9.94;100.00;99288.97;5252662;27;20009;-69
2024/04/10 02:49:45;;;;;;;60.15;12.23;;;;;;;9.98;100.00;99295.44;5338937;26;20001;-68
2024/04/10 02:52:11;;;;;;;155.68;19.17;;;;;;;10.02;100.00;99299.22;5344771;26;20074;-70
2024/04/10 02:54:38;;;;;;;121.63;15.55;;;;;;;10.02;100.00;99292.06;5344716;26;20005;-70
2024/04/10 02:57:04;;;;;;;79.40;12.32;;;;;;;10.12;100.00;99288.81;5346417;26;20357;-68
2024/04/10 02:59:29;;;;;;;66.38;12.52;;;;;;;10.17;100.00;99288.91;5346226;26;20017;-69
2024/04/10 03:01:56;;;;;;;97.85;11.43;;;;;;;10.23;100.00;99303.03;5322741;26;20005;-71
2024/04/10 03:04:21;;;;;;;111.03;13.52;;;;;;;10.26;100.00;99304.41;5344048;26;20052;-70
2024/04/10 03:06:49;;;;;;;74.18;10.00;;;;;;;10.22;100.00;99314.69;5315482;26;20440;-71
2024/04/10 03:09:14;;;;;;;94.22;12.43;;;;;;;10.21;100.00;99307.78;5344183;26;20001;-71
2024/04/10 03:11:40;;;;;;;101.60;11.98;;;;;;;10.20;100.00;99306.97;5345995;26;20569;-71
2024/04/10 03:14:08;;;;;;;109.45;12.90;;;;;;;10.16;100.00;99312.97;5344347;26;20001;-71
2024/04/10 03:16:36;;;;;;;152.00;16.75;;;;;;;10.16;100.00;99315.63;5346060;26;20020;-71
2024/04/10 03:19:02;;;;;;;119.05;14.02;;;;;;;10.21;100.00;99316.53;5315738;26;20001;-69
2024/04/10 03:21:29;;;;;;;89.50;10.90;;;;;;;10.26;100.00;99315.00;5373685;26;20349;-71
2024/04/10 03:23:55;;;;;;;46.70;9.48;;;;;;;10.30;100.00;99316.19;5373618;26;20008;-71
2024/04/10 03:26:21;;;;;;;140.98;12.75;;;;;;;10.35;100.00;99317.09;5343932;26;20009;-70
2024/04/10 03:28:48;;;;;;;122.50;12.15;;;;;;;10.31;100.00;99317.78;5346068;26;20012;-72
2024/04/10 03:31:14;;;;;;;152.93;15.88;;;;;;;10.29;100.00;99323.31;5345553;26;20015;-71
2024/04/10 03:33:41;;;;;;;238.70;21.20;;;;;;;10.32;100.00;99324.69;5315650;26;20458;-70
2024/04/10 03:36:07;;;;;;;81.97;9.85;;;;;;;10.32;100.00;99328.13;5346047;26;20009;-68
2024/04/10 03:38:33;;;;;;;80.22;8.82;;;;;;;10.31;100.00;99336.34;5344459;26;20469;-71
2024/04/10 03:40:59;;;;;;;118.18;11.30;;;;;;;10.29;100.00;99336.56;5343751;26;20023;-71
2024/04/10 03:43:25;;;;;;;225.48;22.52;;;;;;;10.28;100.00;99323.56;5344425;26;20001;-70
2024/04/10 03:45:52;;;;;;;113.40;11.80;;;;;;;10.31;100.00;99331.03;5315083;26;20041;-71
2024/04/10 03:48:19;;;;;;;69.80;9.27;;;;;;;10.30;100.00;99335.53;5344078;26;20405;-71
2024/04/10 03:50:45;;;;;;;87.35;10.88;;;;;;;10.31;100.00;99345.09;5372810;26;20005;-70
2024/04/10 03:53:11;;;;;;;228.27;20.33;;;;;;;10.34;100.00;99339.31;5402754;26;20475;-71
2024/04/10 03:55:38;;;;;;;103.20;11.52;;;;;;;10.40;100.00;99345.50;5343912;26;20016;-70
2024/04/10 03:58:04;;;;;;;180.30;16.73;;;;;;;10.43;100.00;99347.69;5343530;26;20008;-67
2024/04/10 04:00:30;;;;;;;78.72;9.40;;;;;;;10.41;100.00;99339.16;5345474;26;20042;-71
2024/04/10 04:02:56;;;;;;;124.68;12.48;;;;;;;10.49;100.00;99352.03;5343771;26;20025;-69
2024/04/10 04:05:22;;;;;;;148.48;14.13;;;;;;;10.55;100.00;99347.63;5372812;26;20044;-70
2024/04/10 04:07:48;;;;;;;94.80;9.30;;;;;;;10.60;100.00;99353.84;5345459;26;20043;-71
2024/04/10 04:10:14;;;;;;;56.72;8.25;;;;;;;10.69;100.00;99348.94;5345334;26;19997;-68
2024/04/10 04:12:40;;;;;;;64.18;8.15;;;;;;;10.69;100.00;99360.34;5314691;26;20016;-69
2024/04/10 04:15:07;;;;;;;89.78;10.20;;;;;;;10.75;100.00;99358.59;5345664;26;19996;-70
2024/04/10 04:17:33;;;;;;;153.43;14.70;;;;;;;10.75;100.00;99358.59;5314824;26;20030;-70
2024/04/10 04:19:59;;;;;;;72.47;8.57;;;;;;;10.83;100.00;99368.03;5343620;26;20341;-70
2024/04/10 04:22:25;;;;;;;85.88;9.88;;;;;;;10.77;100.00;99363.69;5314670;26;20078;-71
2024/04/10 04:24:51;;;;;;;190.15;17.23;;;;;;;10.78;100.00;99367.94;5344012;26;20011;-68
2024/04/10 04:27:17;;;;;;;94.85;9.93;;;;;;;10.81;100.00;99362.94;5344898;26;20004;-69
2024/04/10 04:29:46;;;;;;;157.07;14.75;;;;;;;10.82;100.00;99359.25;5345337;26;19997;-70
2024/04/10 04:32:12;;;;;;;224.65;18.50;;;;;;;10.91;100.00;99364.97;5314219;26;20064;-69
2024/04/10 04:34:38;;;;;;;83.57;11.65;;;;;;;10.98;100.00;99359.50;5401973;26;20013;-69
2024/04/10 04:37:04;;;;;;;37.67;6.93;;;;;;;11.03;100.00;99363.06;5401585;26;20005;-70
2024/04/10 04:39:30;;;;;;;137.35;13.60;;;;;;;11.03;100.00;99364.88;5343483;26;20012;-67
2024/04/10 04:41:56;;;;;;;103.50;11.73;;;;;;;11.16;100.00;99367.22;5344673;26;20362;-72
2024/04/10 04:44:22;;;;;;;118.75;11.85;;;;;;;11.19;100.00;99366.75;5286168;26;20470;-70
2024/04/10 04:46:49;;;;;;;124.18;12.18;;;;;;;11.19;100.00;99366.75;5343093;26;20001;-67
2024/04/10 04:49:16;;;;;;;38.45;7.82;;;;;;;11.38;100.00;99372.59;5344849;26;20490;-69
2024/04/10 04:51:41;;;;;;;76.28;10.68;;;;;;;11.30;100.00;99373.81;5344555;26;20004;-67
2024/04/10 04:54:07;;;;;;;92.07;10.30;;;;;;;11.44;100.00;99376.97;5342780;26;20001;-69
2024/04/10 04:56:34;;;;;;;124.53;12.20;;;;;;;11.55;100.00;99378.69;5314571;26;20048;-70
2024/04/10 04:59:01;;;;;;;331.95;27.50;;;;;;;11.58;100.00;99372.88;5344486;26;20005;-67
2024/04/10 05:01:27;;;;;;;29.40;7.05;;;;;;;11.62;100.00;99370.56;5313889;26;20005;-67
2024/04/10 05:06:38;;;;;;;94.82;10.05;;;;;;;11.70;100.00;99374.66;5342991;26;20387;-71
2024/04/10 05:09:09;;;;;;;23.83;7.07;;;;;;;11.75;100.00;99374.72;5340306;26;20148;-64
2024/04/10 05:11:38;;;;;;;62.13;8.15;;;;;;;11.79;100.00;99368.69;5344159;26;20001;-70
2024/04/10 05:14:05;;;;;;;22.30;5.68;;;;;;;11.95;100.00;99369.72;5344506;26;20031;-66
2024/04/10 05:16:31;;;;;;;38.95;7.25;;;;;;;11.93;100.00;99373.66;5342852;26;20001;-64
2024/04/10 05:18:58;;;;;;;12.10;5.60;;;;;;;12.01;98.91;99375.91;5342822;26;20075;-69
2024/04/10 05:21:24;;;;;;;153.10;13.80;;;;;;;12.21;99.77;99375.34;5342396;26;20013;-67
2024/04/10 05:23:50;;;;;;;26.83;6.10;;;;;;;12.41;100.00;99375.56;5343105;26;20486;-68
2024/04/10 05:26:15;;;;;;;13.35;5.43;;;;;;;12.50;97.52;99373.28;5343324;26;20008;-66
2024/04/10 05:28:42;;;;;;;190.02;15.05;;;;;;;12.60;95.13;99388.53;5342701;26;20024;-65
2024/04/10 05:31:09;;;;;;;12.35;6.25;;;;;;;12.66;96.97;99385.66;5338762;26;20038;-64
2024/04/10 05:33:35;;;;;;;17.42;6.53;;;;;;;12.92;97.54;99388.56;5340638;26;20074;-64
2024/04/10 05:36:07;;;;;;;12.02;6.15;;;;;;;13.10;94.76;99387.38;5342727;26;20009;-65
2024/04/10 05:38:33;;;;;;;10.68;5.53;;;;;;;13.30;94.69;99392.09;5342666;26;20025;-64
2024/04/10 05:40:59;;;;;;;11.32;6.20;;;;;;;13.48;94.49;99390.91;5341549;26;20450;-65
2024/04/10 05:43:25;;;;;;;18.02;6.82;;;;;;;13.54;90.31;99392.53;5340607;26;20075;-65
2024/04/10 05:45:53;;;;;;;12.63;7.53;;;;;;;13.54;89.71;99397.88;5341090;26;20070;-64
2024/04/10 05:48:19;;;;;;;11.38;7.75;;;;;;;13.56;90.50;99411.69;5331095;26;20005;-66
2024/04/10 05:50:45;;;;;;;14.50;8.02;;;;;;;13.71;90.10;99413.69;5339059;26;20015;-65
2024/04/10 05:53:10;;;;;;;53.50;10.77;;;;;;;13.77;87.85;99418.78;5339660;26;20016;-66
2024/04/10 05:55:36;;;;;;;19.45;9.60;;;;;;;13.81;89.18;99395.09;5339222;26;20365;-66
2024/04/10 05:58:02;;;;;;;20.20;10.20;;;;;;;13.90;88.47;99408.72;5379368;26;20005;-66
2024/04/10 06:00:28;;;;;;;27.52;10.75;;;;;;;13.96;87.42;99413.03;5329990;26;20025;-65
2024/04/10 06:02:53;;;;;;;24.75;11.38;;;;;;;14.05;87.27;99412.25;5340754;26;20035;-66
2024/04/10 06:05:19;;;;;;;10.82;7.68;;;;;;;14.02;85.92;99410.13;5342589;26;20004;-65
2024/04/10 06:07:46;;;;;;;12.10;6.78;;;;;;;14.06;86.07;99413.09;5342703;26;20005;-66
2024/04/10 06:10:12;;;;;;;10.07;6.05;;;;;;;14.17;84.95;99414.72;5339764;26;20048;-64
2024/04/10 06:12:38;;;;;;;12.43;7.63;;;;;;;14.13;84.63;99423.50;5279423;26;20378;-66
2024/04/10 06:15:04;;;;;;;21.55;7.82;;;;;;;14.13;84.97;99429.63;5335200;26;20019;-63
2024/04/10 06:17:36;;;;;;;14.55;7.78;;;;;;;14.17;86.99;99427.25;5351013;26;20009;-63
2024/04/10 06:20:05;;;;;;;11.77;7.38;;;;;;;14.23;84.90;99428.88;5336136;26;20087;-63
2024/04/10 06:22:31;;;;;;;11.20;7.97;;;;;;;14.30;84.25;99435.56;5314197;26;20497;-61
2024/04/10 06:24:57;;;;;;;11.73;8.48;;;;;;;14.31;84.21;99449.72;5339253;26;20009;-61
2024/04/10 06:27:23;;;;;;;11.75;8.82;;;;;;;14.35;84.86;99447.31;5315753;26;20400;-63
2024/04/10 06:29:49;;;;;;;18.02;9.10;;;;;;;14.40;84.49;99452.69;5392704;26;20360;-61
2024/04/10 06:32:15;;;;;;;15.73;9.45;;;;;;;14.51;83.91;99467.66;5309671;26;20009;-62
2024/04/10 06:34:41;;;;;;;13.95;9.82;;;;;;;14.73;84.52;99470.16;5292649;26;20005;-61
2024/04/10 06:37:07;;;;;;;16.88;9.68;;;;;;;14.91;82.48;99469.69;5344303;26;20024;-61
2024/04/10 06:39:34;;;;;;;16.88;9.13;;;;;;;14.95;81.10;99472.63;5336673;26;20101;-62
2024/04/10 06:42:00;;;;;;;15.93;8.82;;;;;;;14.92;81.62;99471.28;5331730;26;20009;-63
2024/04/10 06:44:26;;;;;;;16.60;9.50;;;;;;;15.09;81.54;99475.56;5336627;26;20016;-62
2024/04/10 06:46:52;;;;;;;14.27;8.82;;;;;;;15.38;82.37;99482.03;5329107;26;20019;-64
2024/04/10 06:49:18;;;;;;;15.45;9.23;;;;;;;15.45;79.53;99477.22;5343742;26;20045;-63
2024/04/10 06:51:43;;;;;;;12.98;9.13;;;;;;;15.52;79.28;99474.28;5345380;26;20366;-64
2024/04/10 06:54:10;;;;;;;14.18;8.95;;;;;;;15.71;78.89;99479.13;5312368;26;20040;-62
2024/04/10 06:56:36;;;;;;;16.05;9.48;;;;;;;15.81;80.38;99487.91;5320647;26;20024;-63
2024/04/10 06:59:02;;;;;;;14.95;9.45;;;;;;;15.92;80.13;99491.38;5344367;26;20426;-63
2024/04/10 07:01:28;;;;;;;15.38;9.60;;;;;;;16.10;78.14;99496.16;5345669;26;20480;-62
2024/04/10 07:03:54;;;;;;;13.57;9.35;;;;;;;16.28;77.51;99494.78;5346050;26;20008;-62
2024/04/10 07:06:20;;;;;;;14.55;9.35;;;;;;;16.36;75.61;99496.09;5313416;26;20020;-64
2024/04/10 07:08:47;;;;;;;16.38;9.55;;;;;;;16.46;75.38;99505.94;5346464;26;20005;-63
2024/04/10 07:11:16;;;;;;;14.68;8.88;;;;;;;16.42;75.77;99504.91;5312612;26;20477;-62
2024/04/10 07:13:45;;;;;;;16.73;9.48;;;;;;;16.60;77.66;99506.19;5343456;26;20013;-63
2024/04/10 07:16:11;;;;;;;15.80;9.32;;;;;;;16.50;74.80;99504.31;5345447;26;20005;-63
2024/04/10 07:18:39;;;;;;;13.85;9.15;;;;;;;16.59;76.27;99521.44;5345691;26;20012;-63
2024/04/10 07:21:08;;;;;;;12.75;9.32;;;;;;;16.43;77.04;99515.31;5344593;26;20005;-62
2024/04/10 07:23:37;;;;;;;18.05;9.23;;;;;;;16.40;76.36;99521.22;5345279;26;20020;-63
2024/04/10 07:26:12;;;;;;;15.85;9.40;;;;;;;16.43;76.91;99527.91;5340622;26;20369;-61
2024/04/10 07:28:41;;;;;;;15.02;9.18;;;;;;;16.52;76.62;99513.69;5285240;26;20038;-61
2024/04/10 07:31:09;;;;;;;16.05;9.88;;;;;;;16.56;75.63;99511.28;5341040;26;20023;-61
2024/04/10 07:33:35;;;;;;;19.45;10.55;;;;;;;16.37;74.68;99500.38;5342681;26;20024;-65
2024/04/10 07:36:11;;;;;;;21.70;9.73;;;;;;;16.09;75.98;99491.88;5330879;26;20013;-60
2024/04/10 07:38:38;;;;;;;15.52;9.35;;;;;;;16.21;78.36;99507.63;5327122;26;20009;-61
2024/04/10 07:41:04;;;;;;;16.35;10.10;;;;;;;16.10;76.58;99501.50;5339836;26;20009;-61
2024/04/10 07:43:32;;;;;;;16.65;9.35;;;;;;;15.98;77.17;99505.53;5372416;26;20033;-60
2024/04/10 07:46:14;;;;;;;17.00;9.85;;;;;;;15.93;79.06;99508.22;5329055;26;20017;-58
2024/04/10 07:48:42;;;;;;;15.73;10.48;;;;;;;15.91;78.94;99497.78;5385898;26;20020;-61
2024/04/10 07:51:13;;;;;;;17.70;10.38;;;;;;;15.77;79.92;99502.91;5333302;26;20075;-59
2024/04/10 07:53:40;;;;;;;15.48;10.57;;;;;;;15.79;80.28;99502.63;5342220;26;20541;-60
2024/04/10 07:56:10;;;;;;;18.83;10.05;;;;;;;15.86;79.81;99511.19;5384689;26;20393;-62
2024/04/10 07:58:36;;;;;;;15.57;11.00;;;;;;;15.92;79.79;99502.06;5328941;26;20012;-61
2024/04/10 08:01:03;;;;;;;16.75;10.55;;;;;;;15.95;79.76;99496.19;5328305;26;20020;-62
2024/04/10 08:03:30;;;;;;;18.48;10.68;;;;;;;16.04;79.59;99502.59;5329147;26;20331;-60
2024/04/10 08:05:58;;;;;;;18.65;11.98;;;;;;;16.00;79.72;99495.38;5296209;26;20009;-60
2024/04/10 08:08:24;;;;;;;19.50;11.73;;;;;;;16.10;81.01;99498.03;5341657;26;20020;-62
2024/04/10 08:11:02;;;;;;;16.67;10.10;;;;;;;16.16;80.25;99490.81;5340831;26;20033;-60
2024/04/10 08:13:29;;;;;;;17.40;10.43;;;;;;;16.23;78.61;99496.66;5339071;26;20005;-64
2024/04/10 08:15:56;;;;;;;19.05;9.82;;;;;;;16.21;80.13;99504.97;5310686;26;20013;-63
2024/04/10 08:18:21;;;;;;;15.02;8.27;;;;;;;16.24;80.25;99496.41;5343194;26;20012;-66
2024/04/10 08:20:47;;;;;;;12.85;8.00;;;;;;;16.33;79.02;99500.13;5375049;26;20347;-64
2024/04/10 08:23:15;;;;;;;16.25;9.07;;;;;;;16.33;76.06;99496.66;5312720;26;20473;-62
2024/04/10 08:25:43;;;;;;;17.20;9.20;;;;;;;16.36;75.79;99498.78;5340942;26;20479;-65
2024/04/10 08:28:09;;;;;;;14.82;8.93;;;;;;;16.43;76.01;99499.28;5308845;26;20046;-66
2024/04/10 08:30:35;;;;;;;22.30;10.32;;;;;;;16.47;75.03;99495.00;5308513;26;20017;-65
2024/04/10 08:33:00;;;;;;;20.13;9.57;;;;;;;16.60;75.02;99498.94;5309956;26;20477;-64
2024/04/10 08:35:26;;;;;;;22.13;9.05;;;;;;;16.64;74.03;99499.97;5326850;26;20559;-64
2024/04/10 08:37:52;;;;;;;23.98;12.80;;;;;;;16.70;74.38;99501.56;5341678;26;20001;-65
2024/04/10 08:40:18;;;;;;;24.83;10.88;;;;;;;16.71;73.43;99500.50;5343800;26;20078;-65
2024/04/10 08:42:47;;;;;;;23.58;11.18;;;;;;;16.77;73.29;99498.63;5309206;26;20095;-65
2024/04/10 08:45:15;;;;;;;23.15;10.50;;;;;;;16.90;73.60;99503.38;5340291;26;20012;-64
2024/04/10 08:47:41;;;;;;;24.65;10.70;;;;;;;17.07;72.08;99504.91;5336726;26;20037;-63
2024/04/10 08:50:07;;;;;;;21.98;10.93;;;;;;;17.18;70.79;99493.84;5307508;26;20001;-65
2024/04/10 08:52:36;;;;;;;22.02;12.73;;;;;;;17.26;71.02;99495.13;5342706;26;20016;-64
2024/04/10 08:55:01;;;;;;;23.13;11.80;;;;;;;17.26;69.90;99492.44;5341420;26;20029;-64
2024/04/10 08:57:29;;;;;;;24.17;11.88;;;;;;;17.23;70.02;99501.03;5341345;26;20001;-65
2024/04/10 08:59:54;;;;;;;24.88;11.38;;;;;;;17.31;69.28;99502.34;5341550;26;20015;-64
2024/04/10 09:02:22;;;;;;;27.20;11.48;;;;;;;17.41;68.35;99507.59;5342338;26;20500;-64
2024/04/10 09:06:31;;;;;;;23.45;11.43;;;;;;;17.61;68.22;99512.81;5508002;25;1431790;-65
2024/04/10 09:08:58;;;;;;;18.77;9.77;;;;;;;17.67;66.99;99513.56;5495777;26;20006;-65
2024/04/10 09:11:24;;;;;;;21.90;9.45;;;;;;;17.70;66.87;99519.16;5468978;26;20351;-65
2024/04/10 09:14:03;;;;;;;24.35;9.98;;;;;;;17.61;67.69;99515.50;5469790;26;20519;-64
2024/04/10 09:16:29;;;;;;;22.95;11.43;;;;;;;17.57;67.70;99513.66;5489787;26;20095;-65
2024/04/10 09:18:55;;;;;;;24.33;11.88;;;;;;;17.71;68.26;99512.75;5506162;25;20030;-65
2024/04/10 09:21:21;;;;;;;29.23;12.25;;;;;;;17.78;68.73;99523.16;5483878;26;19998;-65
2024/04/10 09:23:46;;;;;;;23.73;12.10;;;;;;;17.82;66.92;99513.47;5469188;26;19998;-64
2024/04/10 09:26:16;;;;;;;22.55;12.30;;;;;;;17.89;67.19;99515.84;5483111;26;20431;-64
2024/04/10 09:28:43;;;;;;;29.88;13.13;;;;;;;17.93;66.75;99511.50;5503039;25;20017;-63
2024/04/10 09:31:23;;;;;;;28.63;12.55;;;;;;;18.03;67.49;99513.28;5453198;26;20386;-66
2024/04/10 09:33:48;;;;;;;25.33;12.90;;;;;;;18.09;67.31;99523.69;5469101;26;20468;-65
2024/04/10 09:36:14;;;;;;;27.42;12.20;;;;;;;18.12;66.11;99525.81;5486123;26;20467;-65
2024/04/10 09:38:41;;;;;;;27.55;12.07;;;;;;;18.16;66.11;99532.19;5504480;25;20371;-63
2024/04/10 09:41:11;;;;;;;21.05;10.25;;;;;;;18.29;69.68;99530.72;5440878;26;20432;-64
2024/04/10 09:43:41;;;;;;;23.83;10.95;;;;;;;18.19;68.22;99530.03;5474031;25;20011;-65
2024/04/10 09:46:08;;;;;;;24.38;14.57;;;;;;;18.22;67.52;99529.47;5486724;26;20017;-65
2024/04/10 09:48:35;;;;;;;26.48;13.20;;;;;;;18.17;66.65;99535.66;5484130;26;20003;-65
2024/04/10 09:51:07;;;;;;;23.40;11.38;;;;;;;18.12;68.59;99530.38;5468057;26;20066;-65
2024/04/10 09:53:33;;;;;;;24.23;12.27;;;;;;;18.11;68.46;99534.91;5466686;26;19999;-64
2024/04/10 09:56:04;;;;;;;28.85;12.68;;;;;;;17.96;70.17;99543.09;5468869;26;20470;-65
2024/04/10 09:58:31;;;;;;;;;;;;;;;18.00;69.92;99551.38;5468994;26;20409;-65
2024/04/10 10:00:57;;;;;;;32.00;13.38;;;;;;;18.04;70.83;99555.13;5466785;26;19932;-65
2024/04/10 10:03:25;;;;;;;25.33;13.23;;;;;;;18.01;70.80;99561.06;5465570;26;20092;-62
2024/04/10 10:06:07;;;;;;;23.08;13.70;;;;;;;17.90;71.58;99560.31;5442623;26;20070;-64
2024/04/10 10:08:47;;;;;;;29.80;14.10;;;;;;;17.87;70.96;99555.53;5411240;26;20016;-68
2024/04/10 10:11:20;;;;;;;28.15;15.20;;;;;;;17.98;70.71;99558.94;5436770;26;20010;-69
2024/04/10 10:13:59;;;;;;;23.95;15.07;;;;;;;17.96;70.66;99548.47;5499917;25;20026;-64
2024/04/10 10:16:26;;;;;;;26.87;15.70;;;;;;;17.95;71.36;99544.19;5433141;26;20221;-64
2024/04/10 10:18:56;;;;;;;25.63;15.82;;;;;;;18.08;71.24;99545.41;5487179;26;20006;-64
2024/04/10 10:21:23;;;;;;;28.27;13.68;;;;;;;18.17;69.54;99541.03;5489005;26;20021;-64
2024/04/10 10:24:01;;;;;;;25.02;14.50;;;;;;;18.24;69.70;99543.41;5487191;26;20002;-65
2024/04/10 10:26:27;;;;;;;21.48;12.85;;;;;;;18.23;69.55;99547.16;5487348;26;20340;-65
2024/04/10 10:29:04;;;;;;;23.98;13.65;;;;;;;18.36;68.34;99536.56;5489184;26;20012;-67
2024/04/10 10:31:31;;;;;;;24.80;13.45;;;;;;;18.52;68.54;99541.75;5486585;26;20057;-68
2024/04/10 10:34:14;;;;;;;20.33;12.98;;;;;;;18.60;68.75;99541.91;5486995;26;20002;-66
2024/04/10 10:36:42;;;;;;;21.52;13.73;;;;;;;18.52;68.44;99539.84;5484633;26;20014;-69
2024/04/10 10:39:10;;;;;;;24.35;13.57;;;;;;;18.54;68.31;99531.53;5450847;26;19998;-67
2024/04/10 10:41:36;;;;;;;23.70;14.10;;;;;;;18.53;68.55;99532.59;5453399;26;19999;-69
2024/04/10 10:44:02;;;;;;;26.00;13.65;;;;;;;18.46;69.57;99545.56;5440947;26;20421;-67
2024/04/10 10:46:28;;;;;;;38.03;14.68;;;;;;;18.52;69.37;99541.75;5466085;26;20483;-66
2024/04/10 10:48:54;;;;;;;22.85;10.40;;;;;;;18.63;65.10;99553.16;5440425;26;20018;-65
2024/04/10 10:51:22;;;;;;;25.02;10.60;;;;;;;18.70;64.18;99545.56;5469459;26;20067;-64
2024/04/10 10:53:49;;;;;;;24.42;12.20;;;;;;;18.75;66.87;99540.97;5471080;26;20013;-66
2024/04/10 10:56:30;;;;;;;22.98;11.90;;;;;;;18.75;66.53;99549.00;5436402;26;20468;-68
2024/04/10 10:59:07;;;;;;;24.77;13.10;;;;;;;18.67;68.35;99541.56;5468421;26;20044;-65
2024/04/10 11:01:34;;;;;;;22.05;13.15;;;;;;;18.57;68.34;99549.75;5467425;26;20007;-66
2024/04/10 11:04:10;;;;;;;20.08;13.45;;;;;;;18.42;69.41;99557.97;5467378;26;20002;-67
2024/04/10 11:06:36;;;;;;;20.58;12.40;;;;;;;18.44;69.34;99555.78;5468103;26;20013;-67
2024/04/10 11:09:15;;;;;;;19.42;12.63;;;;;;;18.46;69.57;99553.63;5468356;26;20034;-67
2024/04/10 11:11:42;;;;;;;22.98;12.80;;;;;;;18.42;68.97;99557.97;5469646;26;20002;-65
2024/04/10 11:14:21;;;;;;;21.55;12.65;;;;;;;18.53;69.05;99559.44;5469634;26;20502;-65
2024/04/10 11:16:47;;;;;;;18.67;11.77;;;;;;;18.51;69.06;99558.94;5464816;26;20018;-69
2024/04/10 11:19:12;;;;;;;21.55;11.27;;;;;;;18.47;69.78;99563.25;5451628;26;19999;-69